Search for airport 
image banner adimage banner adimage banner ad
image banner ad

64CA - Tahoe Forest Hospital

Located in Truckee, United States

ICAO - 64CA, IATA -

Data provided by Airmate  

General information

Coordinates: N39°19'27" W120°12'1"
Elevation is 5200 feet MSL.
Magnetic variation is 16° East
View others Airports in California

Operational data

Special qualification required
Current time UTC:
Current local time:
Weather at : KTRK - Truckee-Tahoe ( 5 km )
METAR: KTRK 141115Z AUTO 20003KT 10SM SCT041 12/06 A3014 RMK AO2
TAF: KTRK 140535Z 1406/1506 25008KT P6SM SKC WS020/22040KT FM141600 19010G18KT P6SM SKC FM141800 23014G23KT P6SM FEW050 FM150400 21011KT P6SM FEW250 WS020/21030KT
View NOTAMs / SUP AIP / TFR affecting this airport [VIEW]
Communications frequencies: [VIEW]

Runways:

Airport contact information

Address: Truckee United States

Satellite view of 64CA